This is the latest recevied weather packets stored in our database for station/object HA6IFZ-10. If no packets are shown the sender has not sent any weather packets the latest 10 day(s).
| Time | Temp. | Humidity | Pressure | Rain* | Wind** | Luminosity | Snow |
|---|---|---|---|---|---|---|---|
| 1777631787 | 16.11° C | 29% | 1034.4 hPa | - | - | - | - |
| 1777630887 | 16.67° C | 29% | 1034.3 hPa | - | - | - | - |
| 1777629987 | 16.11° C | 30% | 1034.5 hPa | - | - | - | - |
| 1777629087 | 15° C | 32% | 1034.7 hPa | - | - | - | - |
| 1777628186 | 15.56° C | 31% | 1034.7 hPa | - | - | - | - |
| 1777627286 | 16.11° C | 31% | 1034.9 hPa | - | - | - | - |
| 1777626386 | 15° C | 30% | 1034.9 hPa | - | - | - | - |
| 1777625486 | 15° C | 27% | 1035 hPa | - | - | - | - |
| 1777624586 | 15° C | 25% | 1035.1 hPa | - | - | - | - |
| 1777623686 | 15° C | 23% | 1035.1 hPa | - | - | - | - |
| 1777622786 | 16.11° C | 23% | 1035.1 hPa | - | - | - | - |
| 1777621886 | 15° C | 22% | 1035.2 hPa | - | - | - | - |
| 1777620986 | 13.89° C | 24% | 1035.3 hPa | - | - | - | - |
| 1777620086 | 12.78° C | 25% | 1035.3 hPa | - | - | - | - |
| 1777619185 | 12.22° C | 25% | 1035.2 hPa | - | - | - | - |
| 1777618285 | 12.78° C | 26% | 1035.3 hPa | - | - | - | - |
| 1777617385 | 11.67° C | 30% | 1035.2 hPa | - | - | - | - |
| 1777616485 | 10.56° C | 43% | 1035.2 hPa | - | - | - | - |
| 1777615585 | 9.44° C | 47% | 1035.3 hPa | - | - | - | - |
| 1777614685 | 8.89° C | 48% | 1035.2 hPa | - | - | - | - |
| 1777613785 | 7.22° C | 52% | 1035.1 hPa | - | - | - | - |
| 1777594413 | 2.78° C | 58% | 1034.8 hPa | - | - | - | - |
| 1777593513 | 2.78° C | 57% | 1034.9 hPa | - | - | - | - |
| 1777573561 | 7.78° C | 40% | 1034.2 hPa | - | - | - | - |
| 1777572100 | 9.44° C | 35% | 1033.8 hPa | - | - | - | - |
* Rain since midnight (hover to see other rain measurements)
** Current wind speed in m/s (hover to see current wind gust speed)